Time;durP1;ratioP1;P1;durP2;ratioP2;P2;SDS_P1;SDS_P2;PMS_P1;PMS_P2;Temp;Humidity;BMP_temperature;BMP_pressure;BME280_temperature;BME280_humidity;BME280_pressure;Samples;Min_cycle;Max_cycle;Signal;HPM_P1;HPM_P2
2022/10/24 00:01:36;;;;;;;4.77;2.20;;;14.60;99.90;;;;;;5093634;28;20701;-57
2022/10/24 00:04:04;;;;;;;5.03;2.00;;;14.70;99.90;;;;;;5094203;28;20222;-57
2022/10/24 00:06:37;;;;;;;3.70;2.17;;;14.60;99.90;;;;;;5093822;28;20265;-56
2022/10/24 00:09:05;;;;;;;4.27;2.40;;;14.60;99.90;;;;;;5094387;28;20235;-57
2022/10/24 00:11:34;;;;;;;4.60;2.40;;;14.60;99.90;;;;;;5093847;28;20218;-57
2022/10/24 00:14:02;;;;;;;4.30;2.43;;;14.60;99.90;;;;;;5094102;28;20620;-57
2022/10/24 00:16:30;;;;;;;3.43;2.23;;;14.60;99.90;;;;;;5093347;28;20218;-57
2022/10/24 00:18:59;;;;;;;4.10;2.40;;;14.60;99.90;;;;;;5094140;28;20751;-57
2022/10/24 00:21:28;;;;;;;3.67;2.13;;;14.60;99.90;;;;;;5093379;28;20230;-56
2022/10/24 00:23:56;;;;;;;3.70;2.50;;;14.60;99.90;;;;;;5093635;28;20283;-56
2022/10/24 00:26:24;;;;;;;4.30;2.13;;;14.60;99.90;;;;;;5093349;28;20226;-57
2022/10/24 00:28:52;;;;;;;3.97;2.10;;;14.60;99.90;;;;;;5092779;28;20225;-56
2022/10/24 00:31:20;;;;;;;4.33;2.33;;;14.60;99.90;;;;;;5093239;28;20264;-57
2022/10/24 00:33:48;;;;;;;6.77;3.03;;;14.60;99.90;;;;;;5093483;28;20685;-57
2022/10/24 00:36:20;;;;;;;3.10;2.17;;;14.60;99.90;;;;;;5093512;28;20241;-56
2022/10/24 00:38:49;;;;;;;5.47;2.40;;;14.70;99.90;;;;;;5093292;28;20225;-56
2022/10/24 00:41:19;;;;;;;4.13;2.23;;;14.60;99.90;;;;;;5093712;28;20226;-56
2022/10/24 00:43:47;;;;;;;5.07;2.40;;;14.60;99.90;;;;;;5093527;28;20703;-57
2022/10/24 00:46:16;;;;;;;6.37;2.40;;;14.60;99.90;;;;;;5093491;28;20245;-57
2022/10/24 00:48:47;;;;;;;2.57;2.20;;;14.60;99.90;;;;;;5092996;28;20233;-57
2022/10/24 00:51:23;;;;;;;2.50;2.30;;;14.50;99.90;;;;;;5093206;28;20232;-57
2022/10/24 00:53:56;;;;;;;7.50;2.50;;;14.50;99.90;;;;;;5093449;28;20318;-57
2022/10/24 00:56:32;;;;;;;6.07;2.50;;;14.50;99.90;;;;;;5092804;28;20226;-56
2022/10/24 00:59:01;;;;;;;4.07;2.40;;;14.50;99.90;;;;;;5093305;28;20555;-57
2022/10/24 01:01:30;;;;;;;5.73;2.27;;;14.50;99.90;;;;;;5092148;28;20241;-57
2022/10/24 01:03:58;;;;;;;2.97;2.40;;;14.50;99.90;;;;;;5093334;28;20234;-57
2022/10/24 01:06:44;;;;;;;4.70;2.33;;;14.50;99.90;;;;;;5092850;28;20240;-57
2022/10/24 01:09:24;;;;;;;2.50;2.30;;;14.50;99.90;;;;;;5092957;28;20230;-56
2022/10/24 01:12:04;;;;;;;3.60;2.60;;;14.50;99.90;;;;;;5093060;28;20221;-57
2022/10/24 01:14:42;;;;;;;6.33;2.53;;;14.50;99.90;;;;;;5092984;28;20689;-56
2022/10/24 01:17:16;;;;;;;5.13;2.47;;;14.50;99.90;;;;;;5092909;28;20210;-56
2022/10/24 01:20:10;;;;;;;5.23;2.60;;;14.40;99.90;;;;;;5092676;28;20689;-56
2022/10/24 01:22:54;;;;;;;4.23;2.50;;;14.40;99.90;;;;;;5092706;28;20224;-57
2022/10/24 01:25:37;;;;;;;4.77;2.53;;;14.40;99.90;;;;;;5092968;28;20248;-56
2022/10/24 01:28:09;;;;;;;3.30;2.53;;;14.40;99.90;;;;;;5092769;28;20677;-57
2022/10/24 01:30:42;;;;;;;8.03;2.50;;;14.40;99.90;;;;;;5092008;28;20575;-57
2022/10/24 01:33:16;;;;;;;4.03;2.73;;;14.40;99.90;;;;;;5092963;28;20229;-57
2022/10/24 01:35:49;;;;;;;5.33;2.67;;;14.40;99.90;;;;;;5092566;28;20582;-56
2022/10/24 01:38:22;;;;;;;4.37;2.37;;;14.40;99.90;;;;;;5093002;28;20793;-57
2022/10/24 01:40:54;;;;;;;3.77;2.43;;;14.40;99.90;;;;;;5092882;28;20229;-57
2022/10/24 01:43:26;;;;;;;3.67;2.20;;;14.30;99.90;;;;;;5092738;28;20631;-57
2022/10/24 01:46:00;;;;;;;6.50;3.27;;;14.40;99.90;;;;;;5092809;28;20708;-56
2022/10/24 01:48:32;;;;;;;3.73;2.40;;;14.40;99.90;;;;;;5092532;28;20578;-56
2022/10/24 01:51:02;;;;;;;7.00;2.67;;;14.30;99.90;;;;;;5092510;28;20230;-57
2022/10/24 01:53:31;;;;;;;5.03;2.33;;;14.40;99.90;;;;;;5092422;28;20226;-57
2022/10/24 01:56:00;;;;;;;3.17;2.30;;;14.40;99.90;;;;;;5092437;28;20226;-55
2022/10/24 01:58:28;;;;;;;5.50;2.70;;;14.40;99.90;;;;;;5102013;28;20581;-56
2022/10/24 02:01:02;;;;;;;4.17;2.30;;;14.40;99.90;;;;;;5092100;28;20243;-57
2022/10/24 02:03:34;;;;;;;7.67;2.70;;;14.30;99.90;;;;;;5092257;28;20636;-56
2022/10/24 02:06:08;;;;;;;3.10;2.27;;;14.30;99.90;;;;;;5092343;28;20230;-57
2022/10/24 02:08:41;;;;;;;4.80;2.40;;;14.30;99.90;;;;;;5092245;28;20214;-57
2022/10/24 02:11:09;;;;;;;5.73;2.40;;;14.30;99.90;;;;;;5092391;28;20226;-56
2022/10/24 02:13:44;;;;;;;3.73;2.20;;;14.30;99.90;;;;;;5093497;28;20230;-57
2022/10/24 02:16:16;;;;;;;3.20;2.40;;;14.30;99.90;;;;;;5096319;28;20218;-57
2022/10/24 02:18:45;;;;;;;4.90;2.40;;;14.30;99.90;;;;;;5096351;28;20685;-56
2022/10/24 02:21:24;;;;;;;4.20;2.57;;;14.30;99.90;;;;;;5096030;28;20569;-57
2022/10/24 02:23:55;;;;;;;8.47;3.10;;;14.30;99.90;;;;;;5096223;28;20247;-57
2022/10/24 02:26:31;;;;;;;3.23;2.23;;;14.30;99.90;;;;;;5095838;28;20215;-56
2022/10/24 02:29:01;;;;;;;4.80;2.30;;;14.30;99.90;;;;;;5094978;28;20308;-56
2022/10/24 02:31:35;;;;;;;4.87;2.13;;;14.30;99.90;;;;;;5095560;28;20242;-57
2022/10/24 02:34:07;;;;;;;3.93;2.73;;;14.30;99.90;;;;;;5096246;28;20709;-57
2022/10/24 02:36:36;;;;;;;6.60;2.70;;;14.30;99.90;;;;;;5095569;28;20308;-57
2022/10/24 02:39:08;;;;;;;3.10;2.33;;;14.20;99.90;;;;;;5095832;28;20228;-57
2022/10/24 02:41:39;;;;;;;3.93;2.37;;;14.20;99.90;;;;;;5095927;28;20236;-56
2022/10/24 02:44:09;;;;;;;3.97;2.47;;;14.20;99.90;;;;;;5096048;28;20228;-55
2022/10/24 02:46:39;;;;;;;4.87;2.60;;;14.20;99.90;;;;;;5095701;28;20581;-56
2022/10/24 02:49:07;;;;;;;3.97;2.10;;;14.20;99.90;;;;;;5095883;28;20628;-57
2022/10/24 02:51:39;;;;;;;3.93;2.47;;;14.10;99.90;;;;;;5095182;28;20234;-56
2022/10/24 02:54:09;;;;;;;4.80;2.57;;;14.10;99.90;;;;;;5095655;28;20622;-56
2022/10/24 02:56:40;;;;;;;3.57;2.17;;;14.10;99.90;;;;;;5095367;28;20233;-56
2022/10/24 02:59:08;;;;;;;3.07;2.20;;;14.10;99.90;;;;;;5095184;28;20237;-57
2022/10/24 03:01:37;;;;;;;5.27;2.63;;;14.10;99.90;;;;;;5093325;28;20245;-57
2022/10/24 03:04:06;;;;;;;7.83;2.50;;;14.20;99.90;;;;;;5095371;28;20221;-56
2022/10/24 03:06:34;;;;;;;5.10;2.50;;;14.10;99.90;;;;;;5095254;28;20240;-57
2022/10/24 03:09:02;;;;;;;4.30;2.33;;;14.10;99.90;;;;;;5095326;28;20219;-57
2022/10/24 03:11:30;;;;;;;3.50;2.30;;;14.20;99.90;;;;;;5095350;28;20230;-56
2022/10/24 03:13:58;;;;;;;6.13;2.40;;;14.10;99.90;;;;;;5095147;28;20226;-57
2022/10/24 03:16:27;;;;;;;4.33;2.33;;;14.10;99.90;;;;;;5094991;28;20227;-56
2022/10/24 03:18:57;;;;;;;6.10;2.90;;;14.10;99.90;;;;;;5095305;28;20246;-57
2022/10/24 03:21:25;;;;;;;4.43;2.37;;;14.10;99.90;;;;;;5095128;28;20233;-55
2022/10/24 03:23:53;;;;;;;5.20;2.43;;;14.10;99.90;;;;;;5094871;28;20234;-57
2022/10/24 03:26:21;;;;;;;4.73;2.10;;;14.10;99.90;;;;;;5094826;28;20221;-56
2022/10/24 03:28:49;;;;;;;5.93;2.47;;;14.10;99.90;;;;;;5094737;28;20244;-56
2022/10/24 03:31:17;;;;;;;4.47;2.40;;;14.10;99.90;;;;;;5094519;28;20234;-57
2022/10/24 03:33:45;;;;;;;4.13;2.20;;;14.10;99.90;;;;;;5094920;28;20235;-57
2022/10/24 03:36:15;;;;;;;6.87;2.60;;;14.00;99.90;;;;;;5094690;28;20716;-57
2022/10/24 03:38:43;;;;;;;2.83;2.50;;;14.10;99.90;;;;;;5094859;28;20271;-56
2022/10/24 03:41:11;;;;;;;6.33;2.73;;;14.00;99.90;;;;;;5094584;28;20287;-56
2022/10/24 03:43:39;;;;;;;4.97;2.37;;;14.00;99.90;;;;;;5094442;28;20226;-56
2022/10/24 03:46:07;;;;;;;5.77;2.73;;;14.00;99.90;;;;;;5094985;28;20222;-57
2022/10/24 03:48:35;;;;;;;4.50;2.70;;;14.00;99.90;;;;;;5094570;28;20579;-57
2022/10/24 03:51:03;;;;;;;3.83;2.70;;;14.00;99.90;;;;;;5095511;28;20260;-56
2022/10/24 03:53:33;;;;;;;5.33;2.83;;;14.00;99.90;;;;;;5099592;28;20677;-57
2022/10/24 03:56:01;;;;;;;5.37;2.73;;;13.90;99.90;;;;;;5094141;28;20233;-57
2022/10/24 03:58:29;;;;;;;5.90;2.40;;;13.90;99.90;;;;;;5093949;28;20229;-56
2022/10/24 04:00:58;;;;;;;5.03;2.63;;;13.90;99.90;;;;;;5094032;28;20708;-57
2022/10/24 04:03:27;;;;;;;6.47;3.20;;;13.90;99.90;;;;;;5094131;28;20685;-55
2022/10/24 04:05:55;;;;;;;8.23;2.77;;;13.90;99.90;;;;;;5094147;28;20225;-56
2022/10/24 04:08:23;;;;;;;6.53;2.57;;;13.90;99.90;;;;;;5093918;28;20287;-57
2022/10/24 04:10:52;;;;;;;5.77;2.80;;;13.90;99.90;;;;;;5094340;28;20630;-57
2022/10/24 04:13:21;;;;;;;5.33;2.40;;;13.90;99.90;;;;;;5094318;28;20239;-57
2022/10/24 04:15:49;;;;;;;5.97;2.67;;;13.90;99.90;;;;;;5093911;28;20231;-57
2022/10/24 04:18:17;;;;;;;3.87;2.27;;;13.90;99.90;;;;;;5094174;28;20614;-56
2022/10/24 04:20:45;;;;;;;6.87;2.60;;;13.90;99.90;;;;;;5093635;28;20252;-56
2022/10/24 04:23:13;;;;;;;5.87;2.60;;;13.90;99.90;;;;;;5093662;28;20262;-56
2022/10/24 04:25:42;;;;;;;10.63;3.00;;;13.90;99.90;;;;;;5093911;28;20232;-56
2022/10/24 04:28:11;;;;;;;6.40;2.60;;;13.90;99.90;;;;;;5085231;28;20229;-55
2022/10/24 04:30:39;;;;;;;4.87;2.70;;;13.90;99.90;;;;;;5093319;28;20231;-57
2022/10/24 04:33:07;;;;;;;6.67;2.70;;;13.90;99.90;;;;;;5096597;28;20277;-56
2022/10/24 04:35:35;;;;;;;10.33;3.23;;;13.90;99.90;;;;;;5093061;28;20288;-57
2022/10/24 04:38:03;;;;;;;5.70;2.90;;;13.90;99.90;;;;;;5093641;28;20222;-56
2022/10/24 04:40:31;;;;;;;5.23;2.60;;;13.90;99.90;;;;;;5093801;28;20704;-56
2022/10/24 04:42:59;;;;;;;5.73;2.77;;;13.90;99.90;;;;;;5093762;28;20229;-56
2022/10/24 04:45:29;;;;;;;7.87;3.03;;;13.80;99.90;;;;;;5093712;28;20234;-56
2022/10/24 04:47:57;;;;;;;4.50;2.90;;;13.80;99.90;;;;;;5093344;28;20272;-57
2022/10/24 04:50:25;;;;;;;4.60;2.70;;;13.90;99.90;;;;;;5093026;28;20697;-55
2022/10/24 04:52:53;;;;;;;5.63;2.60;;;13.90;99.90;;;;;;5101689;28;20627;-57
2022/10/24 04:55:21;;;;;;;4.47;2.77;;;13.80;99.90;;;;;;5095607;28;20221;-57
2022/10/24 04:57:49;;;;;;;5.40;2.70;;;13.80;99.90;;;;;;5095819;28;20298;-56
2022/10/24 05:00:17;;;;;;;5.23;2.53;;;13.80;99.90;;;;;;5092691;28;20226;-56
2022/10/24 05:02:46;;;;;;;4.53;2.77;;;13.80;99.90;;;;;;5093242;28;20237;-56
2022/10/24 05:05:15;;;;;;;5.33;3.00;;;13.80;99.90;;;;;;5093362;28;20230;-56
2022/10/24 05:07:44;;;;;;;7.37;2.90;;;13.80;99.90;;;;;;5092932;28;20229;-57
2022/10/24 05:10:13;;;;;;;6.57;3.00;;;13.80;99.90;;;;;;5093046;28;20221;-57
2022/10/24 05:12:42;;;;;;;6.90;3.13;;;13.80;99.90;;;;;;5092782;28;20234;-57
2022/10/24 05:15:13;;;;;;;8.87;3.30;;;13.80;99.90;;;;;;5092885;28;20259;-56
2022/10/24 05:17:41;;;;;;;5.37;3.00;;;13.80;99.90;;;;;;5092979;28;20237;-57
2022/10/24 05:20:11;;;;;;;6.90;3.50;;;13.80;99.90;;;;;;5100412;28;20688;-57
2022/10/24 05:22:39;;;;;;;6.40;3.23;;;13.80;99.90;;;;;;5092798;28;20696;-57
2022/10/24 05:25:08;;;;;;;5.97;2.77;;;13.80;99.90;;;;;;5092674;28;20233;-56
2022/10/24 05:27:36;;;;;;;7.77;2.87;;;13.80;99.90;;;;;;5092538;28;20233;-56
2022/10/24 05:30:05;;;;;;;5.40;2.77;;;13.80;99.90;;;;;;5092769;28;20234;-57
2022/10/24 05:32:33;;;;;;;6.53;3.17;;;13.80;99.90;;;;;;5092135;28;20238;-56
2022/10/24 05:35:08;;;;;;;7.40;2.93;;;13.80;99.90;;;;;;5093039;28;20650;-57
2022/10/24 05:37:38;;;;;;;8.07;3.60;;;13.80;99.90;;;;;;5092596;28;20251;-56
2022/10/24 05:40:07;;;;;;;7.60;3.20;;;13.80;99.90;;;;;;5092729;28;20222;-57
2022/10/24 05:42:37;;;;;;;10.57;3.00;;;13.70;99.90;;;;;;5092699;28;20225;-56
2022/10/24 05:45:06;;;;;;;4.83;2.60;;;13.80;99.90;;;;;;5093178;28;20252;-55
2022/10/24 05:47:34;;;;;;;6.83;3.20;;;13.80;99.90;;;;;;5092706;28;20232;-57
2022/10/24 05:50:03;;;;;;;6.60;2.63;;;13.80;99.90;;;;;;5103753;28;20691;-57
2022/10/24 05:52:31;;;;;;;4.53;2.93;;;13.90;99.90;;;;;;5105525;28;20233;-56
2022/10/24 05:55:00;;;;;;;5.77;2.90;;;13.90;99.90;;;;;;5117409;28;20229;-56
2022/10/24 05:57:37;;;;;;;8.37;2.60;;;13.90;99.90;;;;;;5096699;28;20237;-57
2022/10/24 06:00:07;;;;;;;7.07;2.60;;;13.90;99.90;;;;;;5096693;28;20229;-57
2022/10/24 06:02:41;;;;;;;5.97;3.13;;;13.90;99.90;;;;;;5096054;28;20232;-57
2022/10/24 06:05:11;;;;;;;6.50;2.90;;;13.90;99.90;;;;;;5096791;28;20324;-56
2022/10/24 06:07:40;;;;;;;5.80;2.40;;;13.90;99.90;;;;;;5096597;28;20630;-57
2022/10/24 06:10:12;;;;;;;4.97;2.57;;;13.90;99.90;;;;;;5096576;28;20234;-57
2022/10/24 06:12:40;;;;;;;7.30;2.77;;;13.90;99.90;;;;;;5096412;28;20256;-57
2022/10/24 06:15:09;;;;;;;3.27;2.57;;;13.90;99.90;;;;;;5096414;28;20234;-56
2022/10/24 06:17:37;;;;;;;4.83;2.80;;;13.90;99.90;;;;;;5096097;28;20237;-57
2022/10/24 06:20:06;;;;;;;7.83;2.70;;;13.80;99.90;;;;;;5103815;28;20221;-56
2022/10/24 06:22:34;;;;;;;7.37;3.40;;;13.80;99.90;;;;;;5094634;28;20651;-57
2022/10/24 06:25:02;;;;;;;6.50;3.20;;;13.80;99.90;;;;;;5096276;28;20286;-56
2022/10/24 06:27:32;;;;;;;5.47;3.00;;;13.80;99.90;;;;;;5096113;28;20233;-57
2022/10/24 06:30:00;;;;;;;6.40;3.23;;;13.80;99.90;;;;;;5095515;28;20219;-56
2022/10/24 06:32:28;;;;;;;7.20;3.30;;;13.80;99.90;;;;;;5095167;28;20245;-56
2022/10/24 06:34:56;;;;;;;5.80;2.90;;;13.80;99.90;;;;;;5095909;28;20231;-57
2022/10/24 06:37:24;;;;;;;8.30;3.53;;;13.80;99.90;;;;;;5095800;28;20717;-55
2022/10/24 06:39:52;;;;;;;9.93;3.23;;;13.80;99.90;;;;;;5095843;28;20211;-55
2022/10/24 06:42:20;;;;;;;7.13;3.10;;;13.80;99.90;;;;;;5095705;28;20230;-56
2022/10/24 06:44:50;;;;;;;5.90;2.90;;;13.80;99.90;;;;;;5095881;28;20685;-57
2022/10/24 06:47:18;;;;;;;5.93;2.97;;;13.80;99.90;;;;;;5095832;28;20632;-56
2022/10/24 06:49:46;;;;;;;8.20;3.50;;;13.80;99.90;;;;;;5095459;28;20612;-56
2022/10/24 06:52:15;;;;;;;6.13;2.93;;;13.80;99.90;;;;;;5103772;28;20237;-56
2022/10/24 06:54:43;;;;;;;7.60;3.43;;;13.80;99.90;;;;;;5095487;28;20218;-56
2022/10/24 06:57:11;;;;;;;6.90;3.10;;;13.90;99.90;;;;;;5095505;28;20227;-56
2022/10/24 06:59:39;;;;;;;8.83;3.07;;;13.90;99.90;;;;;;5094713;28;20280;-57
2022/10/24 07:02:10;;;;;;;7.53;3.00;;;14.00;99.90;;;;;;5095007;28;20235;-56
2022/10/24 07:04:38;;;;;;;6.17;2.87;;;13.90;99.90;;;;;;5095104;28;20260;-56
2022/10/24 07:07:06;;;;;;;6.43;2.50;;;14.00;99.90;;;;;;5095275;28;20226;-56
2022/10/24 07:09:34;;;;;;;6.67;2.37;;;14.00;99.90;;;;;;5094993;28;20276;-56
2022/10/24 07:12:03;;;;;;;5.53;2.93;;;14.00;99.90;;;;;;5095491;28;20810;-56
2022/10/24 07:14:31;;;;;;;8.47;2.77;;;14.00;99.90;;;;;;5095182;28;20689;-56
2022/10/24 07:16:59;;;;;;;6.97;2.87;;;14.10;99.90;;;;;;5095460;28;20226;-56
2022/10/24 07:19:28;;;;;;;6.50;3.00;;;14.20;99.90;;;;;;5094628;28;20229;-55
2022/10/24 07:21:59;;;;;;;6.20;2.90;;;14.30;99.90;;;;;;5103270;28;20233;-56
2022/10/24 07:24:27;;;;;;;5.97;2.80;;;14.30;99.90;;;;;;5094812;28;20748;-56
2022/10/24 07:26:55;;;;;;;4.33;2.60;;;14.40;99.90;;;;;;5094884;28;20234;-56
2022/10/24 07:29:24;;;;;;;10.93;3.17;;;14.40;99.90;;;;;;5095134;28;20712;-56
2022/10/24 07:31:53;;;;;;;6.07;2.70;;;14.50;99.90;;;;;;5094595;28;20230;-57
2022/10/24 07:34:21;;;;;;;3.90;2.33;;;14.60;99.90;;;;;;5094987;28;20226;-56
2022/10/24 07:36:50;;;;;;;5.33;2.80;;;14.60;99.90;;;;;;5094462;28;20249;-56
2022/10/24 07:39:18;;;;;;;7.93;2.60;;;14.80;99.90;;;;;;5094708;28;20663;-56
2022/10/24 07:41:46;;;;;;;5.80;2.67;;;14.80;99.90;;;;;;5094574;28;20222;-57
2022/10/24 07:44:14;;;;;;;5.43;2.67;;;15.00;99.90;;;;;;5094791;28;20226;-56
2022/10/24 07:46:43;;;;;;;5.50;2.50;;;15.10;99.90;;;;;;5094682;28;20696;-56
2022/10/24 07:49:11;;;;;;;6.10;2.50;;;15.20;99.90;;;;;;5094139;28;20240;-56
2022/10/24 07:51:40;;;;;;;5.70;2.53;;;15.30;99.90;;;;;;5101997;28;20681;-56
2022/10/24 07:54:10;;;;;;;7.90;2.63;;;15.40;99.90;;;;;;5094932;28;20240;-56
2022/10/24 07:56:38;;;;;;;7.33;2.23;;;15.50;99.90;;;;;;5094153;28;20239;-56
2022/10/24 07:59:06;;;;;;;7.63;2.33;;;15.70;99.90;;;;;;5097585;28;20222;-56
2022/10/24 08:01:40;;;;;;;6.83;2.30;;;15.90;99.90;;;;;;5114214;28;20251;-56
2022/10/24 08:04:09;;;;;;;5.83;2.23;;;16.10;99.90;;;;;;5114578;28;20718;-56
2022/10/24 08:06:39;;;;;;;6.20;2.50;;;16.10;99.90;;;;;;5114434;28;20222;-56
2022/10/24 08:09:07;;;;;;;6.53;2.37;;;16.20;99.90;;;;;;5114663;28;20681;-55
2022/10/24 08:11:36;;;;;;;6.27;2.80;;;16.20;99.90;;;;;;5113632;28;20279;-57
2022/10/24 08:14:04;;;;;;;4.57;2.30;;;16.10;99.90;;;;;;5114644;28;20229;-56
2022/10/24 08:16:33;;;;;;;3.30;1.90;;;16.00;99.90;;;;;;5114150;28;20685;-57
2022/10/24 08:19:01;;;;;;;5.93;3.00;;;16.00;99.90;;;;;;5113073;28;20688;-57
2022/10/24 08:21:30;;;;;;;4.87;2.40;;;16.00;99.90;;;;;;5100084;28;20693;-56
2022/10/24 08:23:58;;;;;;;3.53;2.47;;;16.10;99.90;;;;;;5095611;28;20238;-57
2022/10/24 08:26:26;;;;;;;5.73;2.30;;;16.00;99.90;;;;;;5093858;28;20237;-56
2022/10/24 08:28:56;;;;;;;8.80;3.00;;;16.10;99.90;;;;;;5096253;28;20668;-56
2022/10/24 08:31:26;;;;;;;10.83;3.00;;;16.20;99.90;;;;;;5093143;28;20317;-55
2022/10/24 08:33:55;;;;;;;6.17;2.93;;;16.30;99.90;;;;;;5093556;28;20226;-56
2022/10/24 08:36:25;;;;;;;4.73;2.77;;;16.50;99.90;;;;;;5093603;28;20249;-57
2022/10/24 08:38:53;;;;;;;6.53;2.93;;;16.60;99.90;;;;;;5093681;28;20237;-55
2022/10/24 08:41:27;;;;;;;4.83;2.57;;;16.70;99.90;;;;;;5093376;28;20238;-57
2022/10/24 08:43:59;;;;;;;5.30;2.43;;;16.70;99.90;;;;;;5093876;28;20746;-56
2022/10/24 08:46:40;;;;;;;4.67;2.20;;;16.80;99.90;;;;;;5093057;28;20238;-55
2022/10/24 08:49:19;;;;;;;7.53;2.47;;;16.80;99.90;;;;;;5095668;28;20237;-56
2022/10/24 08:51:52;;;;;;;6.67;2.30;;;16.90;99.90;;;;;;5095926;28;20571;-56
2022/10/24 08:54:24;;;;;;;4.87;2.00;;;17.10;99.90;;;;;;5093575;28;20219;-56
2022/10/24 08:56:56;;;;;;;4.43;2.00;;;17.30;99.90;;;;;;5093328;28;20272;-56
2022/10/24 08:59:28;;;;;;;9.93;2.20;;;17.50;99.90;;;;;;5093020;28;20237;-55
2022/10/24 09:02:02;;;;;;;6.93;2.27;;;17.70;99.90;;;;;;5092821;28;20277;-56
2022/10/24 09:04:39;;;;;;;5.27;2.30;;;17.90;99.90;;;;;;5092845;28;20275;-56
2022/10/24 09:07:11;;;;;;;6.33;2.47;;;18.00;99.90;;;;;;5093252;28;20230;-56
2022/10/24 09:09:45;;;;;;;5.97;2.10;;;18.00;99.90;;;;;;5075245;28;20733;-56
2022/10/24 09:12:14;;;;;;;6.37;2.23;;;18.00;99.90;;;;;;5093225;28;20226;-57
2022/10/24 09:14:45;;;;;;;6.50;2.03;;;18.00;99.90;;;;;;5092643;28;20215;-57
2022/10/24 09:17:18;;;;;;;4.63;1.93;;;17.80;99.90;;;;;;5093164;28;20699;-55
2022/10/24 09:19:54;;;;;;;8.33;2.40;;;17.60;99.90;;;;;;5092602;28;20227;-57
2022/10/24 09:22:23;;;;;;;6.60;2.10;;;17.50;99.90;;;;;;5100846;28;20230;-57
2022/10/24 09:24:55;;;;;;;5.60;2.03;;;17.60;99.90;;;;;;5092798;28;20226;-57
2022/10/24 09:27:26;;;;;;;4.80;1.83;;;17.70;99.90;;;;;;5093123;28;20226;-57
2022/10/24 09:29:57;;;;;;;4.43;2.13;;;18.00;99.90;;;;;;5092698;28;20237;-57
2022/10/24 09:32:29;;;;;;;5.10;1.87;;;18.30;99.90;;;;;;5092495;28;20240;-56
2022/10/24 09:35:00;;;;;;;4.53;1.80;;;18.50;99.90;;;;;;5092939;28;20616;-57
2022/10/24 09:37:34;;;;;;;4.67;1.77;;;18.70;99.90;;;;;;5092394;28;20255;-57
2022/10/24 09:40:20;;;;;;;5.47;2.07;;;18.80;99.90;;;;;;5092579;28;20342;-56
2022/10/24 09:42:56;;;;;;;6.40;1.80;;;19.10;99.90;;;;;;5092792;28;20245;-57
2022/10/24 09:45:39;;;;;;;3.47;1.73;;;19.30;99.90;;;;;;5092454;28;20228;-57
2022/10/24 09:48:17;;;;;;;7.83;2.63;;;19.40;99.90;;;;;;5092516;28;20224;-57
2022/10/24 09:50:48;;;;;;;7.10;2.07;;;19.40;99.90;;;;;;5099716;28;20580;-57
2022/10/24 09:53:25;;;;;;;4.90;1.70;;;19.50;99.90;;;;;;5092374;28;20302;-57
2022/10/24 09:55:57;;;;;;;5.47;1.63;;;19.60;99.90;;;;;;5102700;28;20226;-57
2022/10/24 09:58:31;;;;;;;5.70;1.83;;;19.60;99.90;;;;;;5112978;28;20233;-57
2022/10/24 10:01:04;;;;;;;6.23;2.03;;;19.70;99.90;;;;;;5112562;28;20256;-57
2022/10/24 10:03:33;;;;;;;5.67;1.90;;;19.90;99.90;;;;;;5112907;28;20219;-57
2022/10/24 10:06:04;;;;;;;8.63;1.80;;;20.10;99.90;;;;;;5113106;28;20627;-57
2022/10/24 10:08:35;;;;;;;6.13;1.80;;;20.00;99.90;;;;;;5112508;28;20227;-57
2022/10/24 10:11:06;;;;;;;4.97;1.70;;;20.10;99.90;;;;;;5113197;28;20231;-57
2022/10/24 10:13:44;;;;;;;3.93;1.60;;;20.30;99.90;;;;;;5112855;28;20596;-57
2022/10/24 10:16:22;;;;;;;7.40;2.00;;;20.00;99.90;;;;;;5112701;28;20625;-56
2022/10/24 10:18:52;;;;;;;5.13;1.50;;;20.30;99.90;;;;;;5113140;28;20238;-57
2022/10/24 10:21:23;;;;;;;6.00;1.63;;;20.30;99.90;;;;;;5085732;28;20314;-57
2022/10/24 10:23:53;;;;;;;3.87;1.60;;;20.20;99.90;;;;;;5092139;28;20293;-57
2022/10/24 10:26:26;;;;;;;4.60;1.37;;;19.80;99.90;;;;;;5092223;28;20224;-56
2022/10/24 10:29:00;;;;;;;5.57;1.70;;;19.70;99.90;;;;;;5092469;28;20583;-57
2022/10/24 10:31:39;;;;;;;4.57;1.53;;;19.70;99.90;;;;;;5091639;28;20226;-57
2022/10/24 10:34:28;;;;;;;5.70;1.80;;;19.60;99.90;;;;;;5092467;28;20220;-57
2022/10/24 10:37:13;;;;;;;4.53;1.53;;;19.80;99.90;;;;;;5096107;28;20254;-57
2022/10/24 10:40:01;;;;;;;5.00;1.53;;;19.80;99.90;;;;;;5096004;28;20224;-57
2022/10/24 10:42:41;;;;;;;4.20;1.47;;;19.90;99.90;;;;;;5083312;28;20233;-57
2022/10/24 10:45:19;;;;;;;3.73;1.40;;;19.60;99.90;;;;;;5095865;28;20587;-57
2022/10/24 10:48:00;;;;;;;4.17;1.50;;;19.40;99.90;;;;;;5095876;28;20586;-57
2022/10/24 10:50:34;;;;;;;3.97;1.57;;;19.20;99.90;;;;;;5102763;28;20232;-57
2022/10/24 10:53:16;;;;;;;4.77;1.50;;;19.10;99.90;;;;;;5095567;28;20273;-57
2022/10/24 10:55:52;;;;;;;5.40;1.50;;;18.90;99.90;;;;;;5095714;28;20231;-57
2022/10/24 10:58:30;;;;;;;3.80;1.50;;;19.00;99.90;;;;;;5095866;28;20298;-57
2022/10/24 11:01:08;;;;;;;4.30;1.70;;;18.90;99.90;;;;;;5094969;28;20227;-57
2022/10/24 11:03:45;;;;;;;5.20;1.50;;;18.70;99.90;;;;;;5095253;28;20229;-56
2022/10/24 11:06:41;;;;;;;4.77;1.57;;;18.70;99.90;;;;;;5095228;28;20325;-57
2022/10/24 11:09:24;;;;;;;5.37;1.40;;;18.70;99.90;;;;;;5095230;28;20223;-57
2022/10/24 11:11:57;;;;;;;7.00;1.57;;;18.90;99.90;;;;;;5095134;28;20232;-57
2022/10/24 11:14:31;;;;;;;4.93;1.40;;;19.00;99.90;;;;;;5095075;28;20579;-57
2022/10/24 11:17:04;;;;;;;4.70;1.40;;;19.00;99.90;;;;;;5095106;28;20215;-57
2022/10/24 11:19:44;;;;;;;3.27;1.50;;;18.90;99.90;;;;;;5095013;28;20244;-57
2022/10/24 11:22:23;;;;;;;4.03;1.90;;;18.90;99.90;;;;;;5095676;28;20223;-57
2022/10/24 11:24:57;;;;;;;5.97;1.23;;;18.80;99.90;;;;;;5095278;28;20224;-57
2022/10/24 11:27:32;;;;;;;5.23;1.10;;;18.60;99.90;;;;;;5094767;28;20268;-56
2022/10/24 11:30:06;;;;;;;4.13;1.10;;;18.60;99.90;;;;;;5095198;28;20709;-57
2022/10/24 11:32:39;;;;;;;4.13;1.23;;;18.60;99.90;;;;;;5094352;28;20707;-57
2022/10/24 11:35:21;;;;;;;4.23;1.27;;;18.60;99.90;;;;;;5095134;28;20691;-56
2022/10/24 11:37:53;;;;;;;4.93;1.30;;;18.60;99.90;;;;;;5094933;28;20280;-57
2022/10/24 11:40:23;;;;;;;5.57;1.30;;;18.60;99.90;;;;;;5094979;28;20219;-57
2022/10/24 11:42:56;;;;;;;4.63;1.50;;;18.50;99.90;;;;;;5094978;28;20219;-57
2022/10/24 11:45:28;;;;;;;5.13;1.40;;;18.60;99.90;;;;;;5094649;28;20315;-55
2022/10/24 11:48:04;;;;;;;7.43;1.50;;;18.60;99.90;;;;;;5094853;28;20223;-57
2022/10/24 11:50:42;;;;;;;5.23;1.57;;;18.60;99.90;;;;;;5101531;28;20223;-57
2022/10/24 11:53:23;;;;;;;4.13;1.50;;;18.50;99.90;;;;;;5086376;28;20693;-56
2022/10/24 11:55:56;;;;;;;4.27;1.33;;;18.40;99.90;;;;;;5094747;28;20232;-57
2022/10/24 11:58:27;;;;;;;8.73;1.80;;;18.50;99.90;;;;;;5094488;28;20279;-56
2022/10/24 12:01:23;;;;;;;3.40;1.20;;;18.50;99.90;;;;;;5094116;28;20241;-57
2022/10/24 12:04:18;;;;;;;6.43;1.47;;;18.60;99.90;;;;;;5094342;28;20299;-57
2022/10/24 12:07:22;;;;;;;3.83;1.23;;;18.50;99.90;;;;;;5090713;28;20237;-57
2022/10/24 12:10:17;;;;;;;5.67;1.50;;;18.40;99.90;;;;;;5092141;28;20243;-57
2022/10/24 12:13:09;;;;;;;7.87;1.67;;;18.40;99.90;;;;;;5094178;28;20261;-57
2022/10/24 12:15:46;;;;;;;5.13;1.30;;;18.30;99.90;;;;;;5094108;28;20221;-57
2022/10/24 12:18:28;;;;;;;5.47;1.40;;;18.20;99.90;;;;;;5094244;28;20268;-57
2022/10/24 12:21:01;;;;;;;5.00;1.60;;;17.80;99.90;;;;;;5093910;28;20237;-57
2022/10/24 12:23:30;;;;;;;5.87;1.67;;;17.70;99.90;;;;;;5094047;28;20222;-57
2022/10/24 12:26:08;;;;;;;7.67;2.23;;;17.50;99.90;;;;;;5094142;28;20630;-58
2022/10/24 12:28:40;;;;;;;5.50;1.63;;;17.30;99.90;;;;;;5093059;28;20226;-57
2022/10/24 12:31:12;;;;;;;5.67;1.43;;;17.10;99.90;;;;;;5084477;28;20223;-57
2022/10/24 12:33:41;;;;;;;6.37;1.70;;;17.10;99.90;;;;;;5093428;28;20235;-57
2022/10/24 12:36:09;;;;;;;5.37;1.63;;;17.00;99.90;;;;;;5093717;28;20602;-57
2022/10/24 12:39:04;;;;;;;6.47;1.60;;;16.90;99.90;;;;;;5093595;28;20317;-58
2022/10/24 12:41:39;;;;;;;5.93;1.37;;;16.90;99.90;;;;;;5093677;28;20379;-57
2022/10/24 12:44:43;;;;;;;4.60;1.40;;;16.90;99.90;;;;;;5075155;28;20231;-57
2022/10/24 12:47:45;;;;;;;4.27;1.60;;;17.10;99.90;;;;;;4972185;28;20245;-57
2022/10/24 12:50:56;;;;;;;5.27;1.53;;;17.10;99.90;;;;;;5077200;28;20222;-57
2022/10/24 12:54:05;;;;;;;5.00;1.30;;;17.00;99.90;;;;;;5081150;28;20301;-56
2022/10/24 12:56:34;;;;;;;6.97;1.87;;;16.90;99.90;;;;;;5092894;28;20244;-57
2022/10/24 12:59:17;;;;;;;4.13;1.40;;;16.80;99.90;;;;;;5093092;28;20225;-57
2022/10/24 13:01:46;;;;;;;4.90;1.40;;;16.90;99.90;;;;;;5092673;28;20242;-56
2022/10/24 13:04:43;;;;;;;4.67;1.57;;;16.80;99.90;;;;;;5093439;28;20280;-57
2022/10/24 13:07:44;;;;;;;3.40;1.53;;;16.80;99.90;;;;;;5093037;28;20229;-57
2022/10/24 13:10:37;;;;;;;4.00;1.33;;;16.80;99.90;;;;;;5093399;28;20219;-57
2022/10/24 13:13:29;;;;;;;3.43;1.20;;;16.80;99.90;;;;;;5093239;28;20226;-57